createdAt,value
2023-05-13T00:01:38.848Z,6.12
2023-05-13T00:04:06.916Z,6.09
2023-05-13T00:06:34.380Z,6.05
2023-05-13T00:09:01.679Z,6.02
2023-05-13T00:11:28.714Z,5.99
2023-05-13T00:13:55.791Z,5.92
2023-05-13T00:16:25.483Z,5.84
2023-05-13T00:18:52.530Z,5.74
2023-05-13T00:21:19.538Z,5.66
2023-05-13T00:23:46.529Z,5.59
2023-05-13T00:26:13.690Z,5.54
2023-05-13T00:28:41.338Z,5.49
2023-05-13T00:31:10.133Z,5.47
2023-05-13T00:33:37.731Z,5.47
2023-05-13T00:36:05.153Z,5.49
2023-05-13T00:38:32.910Z,5.49
2023-05-13T00:40:59.888Z,5.49
2023-05-13T00:43:27.669Z,5.48
2023-05-13T00:45:54.751Z,5.46
2023-05-13T00:48:21.923Z,5.44
2023-05-13T00:50:48.918Z,5.43
2023-05-13T00:53:16.692Z,5.43
2023-05-13T00:55:44.498Z,5.42
2023-05-13T00:58:12.140Z,5.41
2023-05-13T01:01:06.942Z,5.40
2023-05-13T01:03:39.634Z,5.36
2023-05-13T01:06:13.823Z,5.31
2023-05-13T01:09:07.631Z,5.26
2023-05-13T01:11:37.753Z,5.22
2023-05-13T01:14:17.068Z,5.19
2023-05-13T01:16:53.419Z,5.13
2023-05-13T01:19:27.602Z,5.06
2023-05-13T01:21:55.203Z,5.01
2023-05-13T01:24:22.619Z,4.97
2023-05-13T01:26:49.744Z,4.93
2023-05-13T01:29:16.836Z,4.87
2023-05-13T01:31:44.181Z,4.83
2023-05-13T01:34:11.608Z,4.80
2023-05-13T01:36:39.960Z,4.79
2023-05-13T01:39:07.833Z,4.81
2023-05-13T01:41:35.246Z,4.82
2023-05-13T01:44:02.436Z,4.82
2023-05-13T01:46:29.584Z,4.82
2023-05-13T01:48:56.582Z,4.81
2023-05-13T01:51:23.704Z,4.80
2023-05-13T01:53:50.656Z,4.80
2023-05-13T01:56:17.969Z,4.81
2023-05-13T01:58:44.983Z,4.82
2023-05-13T02:01:12.060Z,4.85
2023-05-13T02:03:39.161Z,4.92
2023-05-13T02:06:06.495Z,4.99
2023-05-13T02:08:33.491Z,5.08
2023-05-13T02:11:00.780Z,5.19
2023-05-13T02:13:28.820Z,5.28
2023-05-13T02:15:55.996Z,5.36
2023-05-13T02:18:23.286Z,5.40
2023-05-13T02:20:50.569Z,5.43
2023-05-13T02:23:17.851Z,5.49
2023-05-13T02:25:44.895Z,5.58
2023-05-13T02:28:11.951Z,5.71
2023-05-13T02:30:38.947Z,5.84
2023-05-13T02:33:06.958Z,5.95
2023-05-13T02:35:34.248Z,6.06
2023-05-13T02:38:04.055Z,6.20
2023-05-13T02:40:31.990Z,6.36
2023-05-13T02:42:59.563Z,6.55
2023-05-13T02:45:31.531Z,6.75
2023-05-13T02:47:58.667Z,6.92
2023-05-13T02:50:26.477Z,7.09
2023-05-13T02:52:53.741Z,7.30
2023-05-13T02:55:20.976Z,7.55
2023-05-13T02:57:48.035Z,7.85
2023-05-13T03:00:16.021Z,8.15
2023-05-13T03:02:43.118Z,8.67
2023-05-13T03:05:10.275Z,9.40
2023-05-13T03:07:37.261Z,10.24
2023-05-13T03:10:05.684Z,11.15
2023-05-13T03:12:32.771Z,12.02
2023-05-13T03:14:59.925Z,12.86
2023-05-13T03:17:27.014Z,13.72
2023-05-13T03:19:54.182Z,14.64
2023-05-13T03:22:21.275Z,15.55
2023-05-13T03:24:48.343Z,16.43
2023-05-13T03:27:15.653Z,17.26
2023-05-13T03:29:43.547Z,17.97
2023-05-13T03:32:10.688Z,18.59
2023-05-13T03:34:38.038Z,19.20
2023-05-13T03:37:05.670Z,19.55
2023-05-13T03:39:32.708Z,19.64
2023-05-13T03:41:59.748Z,19.71
2023-05-13T03:44:26.772Z,19.86
2023-05-13T03:46:53.835Z,20.17
2023-05-13T03:49:21.112Z,20.47
2023-05-13T03:51:48.172Z,20.77
2023-05-13T03:54:15.268Z,21.41
2023-05-13T03:56:42.366Z,22.17
2023-05-13T03:59:09.500Z,22.81
2023-05-13T04:01:36.596Z,23.45
2023-05-13T04:04:03.773Z,23.92
2023-05-13T04:06:32.018Z,24.44
2023-05-13T04:08:59.051Z,25.00
2023-05-13T04:11:26.102Z,25.48
2023-05-13T04:13:54.823Z,26.06
2023-05-13T04:16:22.711Z,26.61
2023-05-13T04:18:49.759Z,27.05
2023-05-13T04:21:17.133Z,27.09
2023-05-13T04:23:44.109Z,26.58
2023-05-13T04:26:11.440Z,26.29
2023-05-13T04:28:38.899Z,26.16
2023-05-13T04:31:06.195Z,25.91
2023-05-13T04:33:35.676Z,25.95
2023-05-13T04:36:03.606Z,26.27
2023-05-13T04:38:31.497Z,26.54
2023-05-13T04:40:58.907Z,26.55
2023-05-13T04:43:33.777Z,26.32
2023-05-13T04:46:01.504Z,26.15
2023-05-13T04:48:28.628Z,26.17
2023-05-13T04:50:58.458Z,26.30
2023-05-13T04:53:25.967Z,26.53
2023-05-13T04:56:00.666Z,26.80
2023-05-13T04:58:29.054Z,27.03
2023-05-13T05:00:57.495Z,27.16
2023-05-13T05:03:25.035Z,27.38
2023-05-13T05:05:52.468Z,27.48
2023-05-13T05:08:19.605Z,27.68
2023-05-13T05:10:47.885Z,27.95
2023-05-13T05:13:15.748Z,28.41
2023-05-13T05:15:43.888Z,28.70
2023-05-13T05:18:11.297Z,28.86
2023-05-13T05:20:39.645Z,29.23
2023-05-13T05:23:10.790Z,29.46
2023-05-13T05:25:38.350Z,29.46
2023-05-13T05:28:05.562Z,29.49
2023-05-13T05:30:39.618Z,29.63
2023-05-13T05:33:11.778Z,30.07
2023-05-13T05:35:40.230Z,30.67
2023-05-13T05:38:09.200Z,31.17
2023-05-13T05:40:37.785Z,31.67
2023-05-13T05:43:05.207Z,32.14
2023-05-13T05:45:32.230Z,32.29
2023-05-13T05:47:59.402Z,32.32
2023-05-13T05:50:26.458Z,32.40
2023-05-13T05:52:53.621Z,32.38
2023-05-13T05:55:21.080Z,32.48
2023-05-13T05:57:48.069Z,32.45
2023-05-13T06:00:15.488Z,32.18
2023-05-13T06:02:42.810Z,32.00
2023-05-13T06:05:11.012Z,32.10
2023-05-13T06:07:38.746Z,32.06
2023-05-13T06:10:08.248Z,31.91
2023-05-13T06:12:35.900Z,31.89
2023-05-13T06:15:03.016Z,31.70
2023-05-13T06:17:30.096Z,31.73
2023-05-13T06:19:58.877Z,31.78
2023-05-13T06:22:25.930Z,31.82
2023-05-13T06:24:53.061Z,31.97
2023-05-13T06:27:20.059Z,32.07
2023-05-13T06:29:47.067Z,32.19
2023-05-13T06:32:14.249Z,32.12
2023-05-13T06:34:46.086Z,32.22
2023-05-13T06:37:16.091Z,32.30
2023-05-13T06:39:43.578Z,32.35
2023-05-13T06:42:12.411Z,32.05
2023-05-13T06:44:44.641Z,31.51
2023-05-13T06:47:16.089Z,30.96
2023-05-13T06:49:43.598Z,30.48
2023-05-13T06:52:10.993Z,30.33
2023-05-13T06:54:38.126Z,30.15
2023-05-13T06:57:06.380Z,29.85
2023-05-13T06:59:33.593Z,29.68
2023-05-13T07:02:00.669Z,29.69
2023-05-13T07:04:29.464Z,29.87
2023-05-13T07:06:57.435Z,29.94
2023-05-13T07:09:24.517Z,29.74
2023-05-13T07:11:51.483Z,29.42
2023-05-13T07:14:18.555Z,29.29
2023-05-13T07:16:45.612Z,29.18
2023-05-13T07:19:12.681Z,29.06
2023-05-13T07:21:39.871Z,28.78
2023-05-13T07:24:06.907Z,28.58
2023-05-13T07:26:33.973Z,28.24
2023-05-13T07:29:02.060Z,27.89
2023-05-13T07:31:30.629Z,27.65
2023-05-13T07:33:57.972Z,27.39
2023-05-13T07:36:25.068Z,27.32
2023-05-13T07:38:52.110Z,27.08
2023-05-13T07:41:19.175Z,26.65
2023-05-13T07:43:46.434Z,26.21
2023-05-13T07:46:13.537Z,25.91
2023-05-13T07:48:41.218Z,25.80
2023-05-13T07:51:08.248Z,25.73
2023-05-13T07:53:36.783Z,25.59
2023-05-13T07:56:04.129Z,25.43
2023-05-13T07:58:31.178Z,25.37
2023-05-13T08:00:58.282Z,25.36
2023-05-13T08:03:25.509Z,25.54
2023-05-13T08:05:52.695Z,25.69
2023-05-13T08:08:19.646Z,25.60
2023-05-13T08:10:46.640Z,25.45
2023-05-13T08:13:13.706Z,25.26
2023-05-13T08:15:41.320Z,25.21
2023-05-13T08:18:08.318Z,25.42
2023-05-13T08:20:35.465Z,25.82
2023-05-13T08:23:02.652Z,26.20
2023-05-13T08:25:29.625Z,26.70
2023-05-13T08:27:57.567Z,26.99
2023-05-13T08:30:24.537Z,27.22
2023-05-13T08:32:51.530Z,27.43
2023-05-13T08:35:18.576Z,27.87
2023-05-13T08:37:45.615Z,28.26
2023-05-13T08:40:12.685Z,28.46
2023-05-13T08:42:42.708Z,28.86
2023-05-13T08:45:10.606Z,29.19
2023-05-13T08:47:58.058Z,29.54
2023-05-13T08:50:25.119Z,30.22
2023-05-13T08:52:52.560Z,30.82
2023-05-13T08:55:20.165Z,30.87
2023-05-13T08:57:47.366Z,30.61
2023-05-13T09:00:14.827Z,30.61
2023-05-13T09:02:42.112Z,30.67
2023-05-13T09:05:09.960Z,30.59
2023-05-13T09:07:37.483Z,30.81
2023-05-13T09:10:06.146Z,30.99
2023-05-13T09:12:51.973Z,31.14
2023-05-13T09:15:23.993Z,31.26
2023-05-13T09:17:53.290Z,31.13
2023-05-13T09:20:21.173Z,31.03
2023-05-13T09:22:49.560Z,31.04
2023-05-13T09:25:17.424Z,30.86
2023-05-13T09:27:50.726Z,30.87
2023-05-13T09:30:17.796Z,30.69
2023-05-13T09:32:44.982Z,30.21
2023-05-13T09:35:17.084Z,29.83
2023-05-13T09:37:47.889Z,30.09
2023-05-13T09:40:16.185Z,30.41
2023-05-13T09:42:44.280Z,30.38
2023-05-13T09:45:14.972Z,30.44
2023-05-13T09:47:42.009Z,30.85
2023-05-13T09:50:10.143Z,31.43
2023-05-13T09:52:38.098Z,31.90
2023-05-13T09:55:08.579Z,32.15
2023-05-13T09:57:35.616Z,32.09
2023-05-13T10:00:08.303Z,31.62
2023-05-13T10:02:40.088Z,31.24
2023-05-13T10:05:07.391Z,31.17
2023-05-13T10:07:34.852Z,31.10
2023-05-13T10:10:03.245Z,30.81
2023-05-13T10:12:31.630Z,30.74
2023-05-13T10:14:58.696Z,30.85
2023-05-13T10:17:26.026Z,30.81
2023-05-13T10:19:53.885Z,30.18
2023-05-13T10:22:31.601Z,29.50
2023-05-13T10:24:59.457Z,28.91
2023-05-13T10:27:28.542Z,28.75
2023-05-13T10:29:56.241Z,28.85
2023-05-13T10:32:25.017Z,28.70
2023-05-13T10:35:05.229Z,28.39
2023-05-13T10:37:44.562Z,28.17
2023-05-13T10:40:49.079Z,27.98
2023-05-13T10:43:22.973Z,28.39
2023-05-13T10:45:51.308Z,28.67
2023-05-13T10:48:18.686Z,28.60
2023-05-13T10:50:56.592Z,28.21
2023-05-13T10:53:32.104Z,27.89
2023-05-13T10:55:59.744Z,27.79
2023-05-13T10:58:30.845Z,27.70
2023-05-13T11:01:16.291Z,27.54
2023-05-13T11:03:52.248Z,27.45
2023-05-13T11:06:24.041Z,27.76
2023-05-13T11:08:53.597Z,28.39
2023-05-13T11:11:25.075Z,28.93
2023-05-13T11:13:52.497Z,29.00
2023-05-13T11:16:20.150Z,29.13
2023-05-13T11:18:47.297Z,29.50
2023-05-13T11:21:14.380Z,29.75
2023-05-13T11:24:06.609Z,29.84
2023-05-13T11:26:53.438Z,29.73
2023-05-13T11:29:33.980Z,29.59
2023-05-13T11:32:02.259Z,29.44
2023-05-13T11:34:29.463Z,29.35
2023-05-13T11:36:57.687Z,29.13
2023-05-13T11:39:26.613Z,28.84
2023-05-13T11:41:54.007Z,28.51
2023-05-13T11:44:23.421Z,28.00
2023-05-13T11:46:57.221Z,27.55
2023-05-13T11:49:39.631Z,27.36
2023-05-13T11:52:07.874Z,26.98
2023-05-13T11:54:55.080Z,26.49
2023-05-13T11:57:25.072Z,26.23
2023-05-13T11:59:59.305Z,26.21
2023-05-13T12:02:28.369Z,26.40
2023-05-13T12:04:55.580Z,26.61
2023-05-13T12:07:24.194Z,26.77
2023-05-13T12:09:51.711Z,26.82
2023-05-13T12:12:19.011Z,26.82
2023-05-13T12:14:46.901Z,26.79
2023-05-13T12:17:14.196Z,26.73
2023-05-13T12:19:41.310Z,26.77
2023-05-13T12:22:08.397Z,26.99
2023-05-13T12:24:35.455Z,27.28
2023-05-13T12:27:08.773Z,27.48
2023-05-13T12:29:42.603Z,27.72
2023-05-13T12:32:09.903Z,27.88
2023-05-13T12:34:36.898Z,27.89
2023-05-13T12:37:13.069Z,27.55
2023-05-13T12:39:43.284Z,27.04
2023-05-13T12:42:17.486Z,26.59
2023-05-13T12:44:45.072Z,26.18
2023-05-13T12:47:13.273Z,25.79
2023-05-13T12:49:56.986Z,25.46
2023-05-13T12:52:24.077Z,25.24
2023-05-13T12:54:51.091Z,25.09
2023-05-13T12:57:18.369Z,24.97
2023-05-13T12:59:48.279Z,24.85
2023-05-13T13:02:15.562Z,24.80
2023-05-13T13:04:42.574Z,24.88
2023-05-13T13:07:12.759Z,25.08
2023-05-13T13:09:39.759Z,25.36
2023-05-13T13:12:07.194Z,25.66
2023-05-13T13:14:34.258Z,25.63
2023-05-13T13:17:01.322Z,25.34
2023-05-13T13:19:28.405Z,24.97
2023-05-13T13:21:55.560Z,24.57
2023-05-13T13:24:22.596Z,24.20
2023-05-13T13:26:50.205Z,23.93
2023-05-13T13:29:17.248Z,23.88
2023-05-13T13:31:44.316Z,23.94
2023-05-13T13:34:12.317Z,24.16
2023-05-13T13:36:39.938Z,24.50
2023-05-13T13:39:06.945Z,24.88
2023-05-13T13:41:33.975Z,25.33
2023-05-13T13:44:00.990Z,25.69
2023-05-13T13:46:28.007Z,25.90
2023-05-13T13:48:55.069Z,26.09
2023-05-13T13:51:22.073Z,26.25
2023-05-13T13:53:49.516Z,26.51
2023-05-13T13:56:16.585Z,26.73
2023-05-13T13:58:43.598Z,26.74
2023-05-13T14:01:10.814Z,26.73
2023-05-13T14:03:37.884Z,26.70
2023-05-13T14:06:05.237Z,26.49
2023-05-13T14:08:32.327Z,26.29
2023-05-13T14:10:59.490Z,26.06
2023-05-13T14:13:26.503Z,25.76
2023-05-13T14:15:53.635Z,25.41
2023-05-13T14:18:20.739Z,24.95
2023-05-13T14:20:48.822Z,24.45
2023-05-13T14:23:16.104Z,24.06
2023-05-13T14:25:43.579Z,23.75
2023-05-13T14:28:12.472Z,23.48
2023-05-13T14:30:39.444Z,23.26
2023-05-13T14:33:06.572Z,23.13
2023-05-13T14:35:34.445Z,23.02
2023-05-13T14:38:01.501Z,22.89
2023-05-13T14:40:28.582Z,22.76
2023-05-13T14:42:55.842Z,22.71
2023-05-13T14:45:22.876Z,22.68
2023-05-13T14:47:53.819Z,22.67
2023-05-13T14:50:21.429Z,22.63
2023-05-13T14:52:48.622Z,22.58
2023-05-13T14:55:15.778Z,22.55
2023-05-13T14:57:42.769Z,22.51
2023-05-13T15:00:10.520Z,22.47
2023-05-13T15:02:37.892Z,22.41
2023-05-13T15:05:05.602Z,22.39
2023-05-13T15:07:32.587Z,22.39
2023-05-13T15:09:59.584Z,22.35
2023-05-13T15:12:26.819Z,22.32
2023-05-13T15:14:57.242Z,22.31
2023-05-13T15:17:24.288Z,22.27
2023-05-13T15:19:51.310Z,22.21
2023-05-13T15:22:18.464Z,22.18
2023-05-13T15:24:45.558Z,22.15
2023-05-13T15:27:12.615Z,22.14
2023-05-13T15:29:39.591Z,22.13
2023-05-13T15:32:07.509Z,22.12
2023-05-13T15:34:35.101Z,22.13
2023-05-13T15:37:02.055Z,22.11
2023-05-13T15:39:29.157Z,22.08
2023-05-13T15:41:56.359Z,22.04
2023-05-13T15:44:23.419Z,21.99
2023-05-13T15:46:50.525Z,21.93
2023-05-13T15:49:17.898Z,21.83
2023-05-13T15:51:44.875Z,21.76
2023-05-13T15:54:11.952Z,21.66
2023-05-13T15:56:38.959Z,21.55
2023-05-13T15:59:05.943Z,21.43
2023-05-13T16:01:33.053Z,21.32
2023-05-13T16:04:00.205Z,21.22
2023-05-13T16:06:27.293Z,21.09
2023-05-13T16:08:56.235Z,20.98
2023-05-13T16:11:24.812Z,20.84
2023-05-13T16:13:52.505Z,20.67
2023-05-13T16:16:20.756Z,20.51
2023-05-13T16:18:47.950Z,20.36
2023-05-13T16:21:14.961Z,20.19
2023-05-13T16:23:42.004Z,20.01
2023-05-13T16:26:09.015Z,19.82
2023-05-13T16:28:35.983Z,19.63
2023-05-13T16:31:03.044Z,19.47
2023-05-13T16:33:30.416Z,19.29
2023-05-13T16:35:57.460Z,19.11
2023-05-13T16:38:25.872Z,18.93
2023-05-13T16:40:53.215Z,18.76
2023-05-13T16:43:20.215Z,18.57
2023-05-13T16:45:47.240Z,18.41
2023-05-13T16:48:14.531Z,18.25
2023-05-13T16:50:41.679Z,18.10
2023-05-13T16:53:08.721Z,17.94
2023-05-13T16:55:35.731Z,17.81
2023-05-13T16:58:02.685Z,17.67
2023-05-13T17:00:30.387Z,17.55
2023-05-13T17:02:57.901Z,17.43
2023-05-13T17:05:24.962Z,17.31
2023-05-13T17:07:51.989Z,17.19
2023-05-13T17:10:18.990Z,17.11
2023-05-13T17:12:46.179Z,17.03
2023-05-13T17:15:13.274Z,16.92
2023-05-13T17:17:40.380Z,16.81
2023-05-13T17:20:07.949Z,16.68
2023-05-13T17:22:34.993Z,16.56
2023-05-13T17:25:02.109Z,16.47
2023-05-13T17:27:29.081Z,16.39
2023-05-13T17:29:56.139Z,16.34
2023-05-13T17:32:23.211Z,16.31
2023-05-13T17:34:50.301Z,16.29
2023-05-13T17:37:17.300Z,16.26
2023-05-13T17:39:44.365Z,16.19
2023-05-13T17:42:11.337Z,16.10
2023-05-13T17:44:38.434Z,15.99
2023-05-13T17:47:05.423Z,15.90
2023-05-13T17:49:32.452Z,15.81
2023-05-13T17:51:59.465Z,15.74
2023-05-13T17:54:26.436Z,15.75
2023-05-13T17:56:53.637Z,15.81
2023-05-13T17:59:20.686Z,15.88
2023-05-13T18:01:47.682Z,15.90
2023-05-13T18:04:14.735Z,15.90
2023-05-13T18:06:41.736Z,15.86
2023-05-13T18:09:08.732Z,15.79
2023-05-13T18:11:35.784Z,15.70
2023-05-13T18:14:03.283Z,15.63
2023-05-13T18:16:30.360Z,15.57
2023-05-13T18:18:57.431Z,15.51
2023-05-13T18:21:26.541Z,15.46
2023-05-13T18:23:53.527Z,15.40
2023-05-13T18:26:20.954Z,15.35
2023-05-13T18:28:47.975Z,15.30
2023-05-13T18:31:15.017Z,15.31
2023-05-13T18:33:42.087Z,15.30
2023-05-13T18:36:10.214Z,15.27
2023-05-13T18:38:37.556Z,15.21
2023-05-13T18:41:05.124Z,15.16
2023-05-13T18:43:32.189Z,15.13
2023-05-13T18:45:59.360Z,15.17
2023-05-13T18:48:26.381Z,15.17
2023-05-13T18:50:53.589Z,15.13
2023-05-13T18:53:20.653Z,15.08
2023-05-13T18:55:47.608Z,15.05
2023-05-13T18:58:14.677Z,15.00
2023-05-13T19:00:41.942Z,14.93
2023-05-13T19:03:09.099Z,14.83
2023-05-13T19:05:36.310Z,14.72
2023-05-13T19:08:03.562Z,14.62
2023-05-13T19:10:30.563Z,14.51
2023-05-13T19:12:57.653Z,14.35
2023-05-13T19:15:25.368Z,14.18
2023-05-13T19:17:52.680Z,14.00
2023-05-13T19:20:19.949Z,13.82
2023-05-13T19:22:47.182Z,13.69
2023-05-13T19:25:14.173Z,13.58
2023-05-13T19:27:41.253Z,13.51
2023-05-13T19:30:08.827Z,13.51
2023-05-13T19:32:36.453Z,13.59
2023-05-13T19:35:03.917Z,13.69
2023-05-13T19:37:31.198Z,13.77
2023-05-13T19:39:58.205Z,13.83
2023-05-13T19:42:25.546Z,13.83
2023-05-13T19:44:52.561Z,13.79
2023-05-13T19:47:19.571Z,13.72
2023-05-13T19:49:46.888Z,13.59
2023-05-13T19:52:13.878Z,13.44
2023-05-13T19:54:40.996Z,13.32
2023-05-13T19:57:08.143Z,13.26
2023-05-13T19:59:36.210Z,13.25
2023-05-13T20:02:03.343Z,13.26
2023-05-13T20:04:30.789Z,13.27
2023-05-13T20:06:58.256Z,13.27
2023-05-13T20:09:26.922Z,13.30
2023-05-13T20:11:53.968Z,13.29
2023-05-13T20:14:23.318Z,13.18
2023-05-13T20:16:50.647Z,12.98
2023-05-13T20:19:18.155Z,12.78
2023-05-13T20:21:46.217Z,12.62
2023-05-13T20:24:13.541Z,12.52
2023-05-13T20:26:40.575Z,12.43
2023-05-13T20:29:08.252Z,12.36
2023-05-13T20:31:35.264Z,12.29
2023-05-13T20:34:03.498Z,12.20
2023-05-13T20:36:32.188Z,12.11
2023-05-13T20:38:59.218Z,11.99
2023-05-13T20:41:26.245Z,11.85
2023-05-13T20:43:53.255Z,11.68
2023-05-13T20:46:20.294Z,11.56
2023-05-13T20:48:48.094Z,11.44
2023-05-13T20:51:15.156Z,11.33
2023-05-13T20:53:42.126Z,11.25
2023-05-13T20:56:10.250Z,11.16
2023-05-13T20:58:37.450Z,11.09
2023-05-13T21:01:04.500Z,11.02
2023-05-13T21:04:59.512Z,10.97
2023-05-13T21:07:26.495Z,10.89
2023-05-13T21:09:53.651Z,10.84
2023-05-13T21:12:20.961Z,10.79
2023-05-13T21:14:48.150Z,10.70
2023-05-13T21:17:20.591Z,10.62
2023-05-13T21:19:50.701Z,10.54
2023-05-13T21:22:18.923Z,10.47
2023-05-13T21:24:46.584Z,10.39
2023-05-13T21:27:13.840Z,10.33
2023-05-13T21:29:41.008Z,10.26
2023-05-13T21:32:08.158Z,10.20
2023-05-13T21:34:35.297Z,10.15
2023-05-13T21:37:03.042Z,10.11
2023-05-13T21:39:30.396Z,10.06
2023-05-13T21:41:59.659Z,10.00
2023-05-13T21:44:28.328Z,9.95
2023-05-13T21:46:55.432Z,9.89
2023-05-13T21:49:22.480Z,9.83
2023-05-13T21:51:50.806Z,9.77
2023-05-13T21:54:18.687Z,9.72
2023-05-13T21:56:46.460Z,9.65
2023-05-13T21:59:13.825Z,9.58
2023-05-13T22:01:41.281Z,9.49
2023-05-13T22:04:08.453Z,9.42
2023-05-13T22:06:35.519Z,9.35
2023-05-13T22:09:02.849Z,9.30
2023-05-13T22:11:30.210Z,9.24
2023-05-13T22:13:58.601Z,9.20
2023-05-13T22:16:25.815Z,9.18
2023-05-13T22:18:55.429Z,9.14
2023-05-13T22:21:22.492Z,9.11
2023-05-13T22:23:50.870Z,9.07
2023-05-13T22:26:18.124Z,9.04
2023-05-13T22:28:46.721Z,9.00
2023-05-13T22:31:14.996Z,8.98
2023-05-13T22:33:43.649Z,8.96
2023-05-13T22:36:13.624Z,8.94
2023-05-13T22:38:43.975Z,8.92
2023-05-13T22:41:11.433Z,8.91
2023-05-13T22:43:38.960Z,8.88
2023-05-13T22:46:06.124Z,8.88
2023-05-13T22:48:34.738Z,8.86
2023-05-13T22:51:02.272Z,8.84
2023-05-13T22:53:30.000Z,8.82
2023-05-13T22:55:57.143Z,8.79
2023-05-13T22:58:24.084Z,8.77
2023-05-13T23:00:51.127Z,8.74
2023-05-13T23:03:18.281Z,8.71
2023-05-13T23:05:45.327Z,8.69
2023-05-13T23:08:13.296Z,8.67
2023-05-13T23:10:40.249Z,8.65
2023-05-13T23:13:07.395Z,8.62
2023-05-13T23:15:36.193Z,8.58
2023-05-13T23:18:03.495Z,8.52
2023-05-13T23:20:30.718Z,8.47
2023-05-13T23:22:57.866Z,8.43
2023-05-13T23:25:25.129Z,8.38
2023-05-13T23:27:52.168Z,8.34
2023-05-13T23:30:20.585Z,8.29
2023-05-13T23:32:47.885Z,8.24
2023-05-13T23:35:15.077Z,8.19
2023-05-13T23:37:42.278Z,8.14
2023-05-13T23:40:10.150Z,8.09
2023-05-13T23:42:37.900Z,8.06
2023-05-13T23:45:05.558Z,8.01
2023-05-13T23:47:33.068Z,7.98
2023-05-13T23:50:00.348Z,7.96
2023-05-13T23:52:27.703Z,7.92
2023-05-13T23:54:55.085Z,7.91
2023-05-13T23:57:22.257Z,7.91
2023-05-13T23:59:49.485Z,7.89
